createdAt,value
2022-12-07T00:02:38.457Z,4.90
2022-12-07T00:06:46.102Z,4.90
2022-12-07T00:10:48.015Z,4.90
2022-12-07T00:14:50.996Z,4.80
2022-12-07T00:18:53.419Z,4.90
2022-12-07T00:22:55.359Z,4.90
2022-12-07T00:26:57.514Z,4.90
2022-12-07T00:31:05.514Z,5.00
2022-12-07T00:35:07.790Z,5.00
2022-12-07T00:39:09.951Z,5.00
2022-12-07T00:43:11.851Z,4.90
2022-12-07T00:47:13.637Z,4.90
2022-12-07T00:51:17.292Z,5.00
2022-12-07T00:55:18.960Z,5.00
2022-12-07T00:59:20.598Z,5.00
2022-12-07T01:03:22.256Z,5.00
2022-12-07T01:07:24.016Z,5.00
2022-12-07T01:11:28.835Z,5.00
2022-12-07T01:15:30.414Z,5.00
2022-12-07T01:19:32.050Z,4.90
2022-12-07T01:23:35.235Z,5.00
2022-12-07T01:27:37.517Z,5.00
2022-12-07T01:31:39.191Z,5.00
2022-12-07T01:35:40.826Z,4.90
2022-12-07T01:39:42.872Z,5.00
2022-12-07T01:44:20.685Z,4.90
2022-12-07T01:48:27.147Z,5.00
2022-12-07T01:52:32.739Z,5.10
2022-12-07T01:56:34.739Z,5.00
2022-12-07T02:00:36.533Z,5.00
2022-12-07T02:04:38.302Z,5.00
2022-12-07T02:08:40.936Z,5.10
2022-12-07T02:12:45.823Z,5.00
2022-12-07T02:16:54.984Z,5.00
2022-12-07T02:21:22.513Z,4.90
2022-12-07T02:25:39.171Z,5.00
2022-12-07T02:29:40.723Z,4.90
2022-12-07T02:33:47.802Z,5.00
2022-12-07T02:37:59.843Z,4.90
2022-12-07T02:42:14.716Z,4.90
2022-12-07T02:46:22.084Z,5.00
2022-12-07T02:50:23.932Z,4.90
2022-12-07T02:54:25.697Z,4.90
2022-12-07T02:58:40.855Z,4.80
2022-12-07T03:03:04.371Z,4.80
2022-12-07T03:07:15.026Z,4.90
2022-12-07T03:11:31.150Z,4.90
2022-12-07T03:15:58.483Z,4.80
2022-12-07T03:20:05.429Z,4.70
2022-12-07T03:24:09.821Z,4.80
2022-12-07T03:28:14.623Z,4.70
2022-12-07T03:32:31.987Z,4.70
2022-12-07T03:36:46.271Z,4.70
2022-12-07T03:40:59.824Z,4.80
2022-12-07T03:45:04.640Z,4.70
2022-12-07T03:49:30.655Z,4.70
2022-12-07T03:53:49.688Z,4.70
2022-12-07T03:57:55.770Z,4.60
2022-12-07T04:02:02.714Z,4.60
2022-12-07T04:06:04.685Z,4.70
2022-12-07T04:10:07.163Z,4.70
2022-12-07T04:14:20.972Z,4.70
2022-12-07T04:18:22.599Z,4.70
2022-12-07T04:22:24.248Z,4.70
2022-12-07T04:26:26.062Z,4.60
2022-12-07T04:30:27.707Z,4.60
2022-12-07T04:34:29.451Z,4.60
2022-12-07T04:38:31.138Z,4.50
2022-12-07T04:42:32.808Z,4.50
2022-12-07T04:46:34.655Z,4.50
2022-12-07T04:50:43.144Z,4.50
2022-12-07T04:54:47.603Z,4.50
2022-12-07T04:58:50.194Z,4.40
2022-12-07T05:02:51.832Z,4.30
2022-12-07T05:06:53.455Z,4.20
2022-12-07T05:10:55.147Z,4.10
2022-12-07T05:14:56.771Z,4.20
2022-12-07T05:18:58.781Z,4.10
2022-12-07T05:23:00.611Z,4.10
2022-12-07T05:27:02.411Z,4.10
2022-12-07T05:31:04.195Z,4.20
2022-12-07T05:35:06.247Z,4.20
2022-12-07T05:39:08.393Z,4.10
2022-12-07T05:43:10.186Z,4.20
2022-12-07T05:47:12.892Z,4.10
2022-12-07T05:51:14.534Z,4.20
2022-12-07T05:55:16.472Z,4.20
2022-12-07T05:59:23.970Z,4.20
2022-12-07T06:03:25.681Z,4.20
2022-12-07T06:07:27.370Z,4.10
2022-12-07T06:11:47.863Z,4.10
2022-12-07T06:15:49.492Z,4.10
2022-12-07T06:19:51.715Z,4.10
2022-12-07T06:23:53.725Z,4.10
2022-12-07T06:27:56.242Z,4.10
2022-12-07T06:31:58.277Z,4.00
2022-12-07T06:35:59.935Z,4.10
2022-12-07T06:40:01.864Z,4.10
2022-12-07T06:44:04.707Z,4.10
2022-12-07T06:48:06.451Z,4.10
2022-12-07T06:52:08.210Z,4.20
2022-12-07T06:56:09.847Z,4.10
2022-12-07T07:00:15.690Z,4.10
2022-12-07T07:04:21.654Z,4.00
2022-12-07T07:08:24.151Z,4.00
2022-12-07T07:12:26.036Z,3.90
2022-12-07T07:16:27.690Z,4.00
2022-12-07T07:20:29.470Z,3.90
2022-12-07T07:24:31.370Z,3.90
2022-12-07T07:28:32.981Z,3.90
2022-12-07T07:32:35.236Z,3.90
2022-12-07T07:36:36.902Z,3.90
2022-12-07T07:40:38.633Z,3.90
2022-12-07T07:44:40.281Z,3.80
2022-12-07T07:48:41.882Z,3.70
2022-12-07T07:52:44.155Z,3.60
2022-12-07T07:56:45.783Z,3.60
2022-12-07T08:00:47.467Z,3.50
2022-12-07T08:04:49.323Z,3.50
2022-12-07T08:08:50.961Z,3.60
2022-12-07T08:13:11.484Z,3.60
2022-12-07T08:17:13.418Z,3.60
2022-12-07T08:21:16.349Z,3.70
2022-12-07T08:25:18.285Z,3.80
2022-12-07T08:29:20.588Z,3.70
2022-12-07T08:33:23.912Z,3.80
2022-12-07T08:37:25.546Z,3.90
2022-12-07T08:41:27.173Z,4.00
2022-12-07T08:45:28.894Z,3.90
2022-12-07T08:49:44.392Z,4.00
2022-12-07T08:53:46.730Z,3.90
2022-12-07T08:57:48.669Z,4.00
2022-12-07T09:01:50.354Z,4.00
2022-12-07T09:05:53.662Z,4.10
2022-12-07T09:09:55.390Z,4.20
2022-12-07T09:13:57.374Z,4.30
2022-12-07T09:17:59.079Z,4.40
2022-12-07T09:22:00.776Z,4.50
2022-12-07T09:26:10.484Z,4.50
2022-12-07T09:30:13.148Z,4.60
2022-12-07T09:34:14.846Z,4.60
2022-12-07T09:38:17.510Z,4.60
2022-12-07T09:42:37.522Z,4.80
2022-12-07T09:46:42.863Z,5.10
2022-12-07T09:50:44.706Z,5.10
2022-12-07T09:54:49.636Z,5.30
2022-12-07T09:59:00.447Z,5.30
2022-12-07T10:03:03.310Z,5.40
2022-12-07T10:07:04.952Z,5.40
2022-12-07T10:11:11.337Z,5.30
2022-12-07T10:15:14.308Z,5.30
2022-12-07T10:19:45.336Z,5.30
2022-12-07T10:24:11.097Z,5.30
2022-12-07T10:28:16.645Z,5.20
2022-12-07T10:32:18.220Z,5.40
2022-12-07T10:36:37.064Z,5.40
2022-12-07T10:40:40.851Z,5.40
2022-12-07T10:44:47.401Z,5.40
2022-12-07T10:48:58.564Z,5.30
2022-12-07T10:53:35.682Z,5.50
2022-12-07T10:58:08.779Z,5.70
2022-12-07T11:02:37.762Z,6.00
2022-12-07T11:07:05.905Z,6.40
2022-12-07T11:11:34.425Z,6.50
2022-12-07T11:16:01.404Z,6.60
2022-12-07T11:20:21.100Z,6.70
2022-12-07T11:24:45.384Z,6.70
2022-12-07T11:29:22.334Z,6.60
2022-12-07T11:33:32.596Z,6.40
2022-12-07T11:41:43.844Z,6.30
2022-12-07T11:45:53.355Z,6.40
2022-12-07T11:50:04.062Z,6.30
2022-12-07T11:54:30.938Z,6.30
2022-12-07T11:59:01.506Z,6.20
2022-12-07T12:03:12.359Z,6.30
2022-12-07T12:16:44.193Z,6.60
2022-12-07T12:20:57.264Z,6.50
2022-12-07T12:24:59.244Z,6.50
2022-12-07T12:29:05.139Z,6.40
2022-12-07T12:33:32.679Z,6.40
2022-12-07T12:37:34.278Z,6.30
2022-12-07T12:42:01.874Z,6.40
2022-12-07T12:46:58.222Z,6.40
2022-12-07T12:51:37.996Z,6.40
2022-12-07T12:55:42.377Z,6.50
2022-12-07T13:00:00.883Z,6.50
2022-12-07T13:04:03.806Z,6.40
2022-12-07T13:08:28.004Z,6.40
2022-12-07T13:12:33.007Z,5.90
2022-12-07T13:16:39.208Z,5.60
2022-12-07T13:20:46.769Z,5.60
2022-12-07T13:24:48.442Z,5.50
2022-12-07T13:29:20.936Z,5.60
2022-12-07T13:33:22.684Z,5.60
2022-12-07T13:37:33.657Z,5.60
2022-12-07T13:41:43.502Z,5.60
2022-12-07T13:45:51.285Z,5.70
2022-12-07T13:49:55.775Z,5.70
2022-12-07T13:54:09.861Z,5.80
2022-12-07T13:58:11.664Z,5.90
2022-12-07T14:02:34.418Z,6.00
2022-12-07T14:06:37.164Z,6.10
2022-12-07T14:10:59.873Z,6.10
2022-12-07T14:15:03.427Z,6.10
2022-12-07T14:19:26.289Z,6.10
2022-12-07T14:23:28.647Z,6.00
2022-12-07T14:27:37.447Z,5.90
2022-12-07T14:31:39.091Z,5.90
2022-12-07T14:35:41.379Z,5.80
2022-12-07T14:39:42.976Z,5.80
2022-12-07T14:44:00.161Z,5.80
2022-12-07T14:56:52.722Z,5.40
2022-12-07T15:00:54.334Z,5.20
2022-12-07T15:04:56.103Z,5.10
2022-12-07T15:08:57.778Z,5.00
2022-12-07T15:13:20.808Z,4.90
2022-12-07T15:17:31.458Z,4.90
2022-12-07T15:21:33.805Z,4.80
2022-12-07T15:25:35.448Z,4.70
2022-12-07T15:29:37.061Z,4.60
2022-12-07T15:33:39.772Z,4.50
2022-12-07T15:37:41.514Z,4.30
2022-12-07T15:41:43.195Z,4.20
2022-12-07T15:45:44.803Z,4.20
2022-12-07T15:49:46.499Z,4.20
2022-12-07T15:53:48.133Z,4.10
2022-12-07T15:57:50.289Z,4.10
2022-12-07T16:01:52.120Z,4.10
2022-12-07T16:05:54.137Z,4.40
2022-12-07T16:09:55.986Z,4.40
2022-12-07T16:13:57.643Z,4.60
2022-12-07T16:17:59.323Z,4.60
2022-12-07T16:22:01.158Z,4.60
2022-12-07T16:26:08.085Z,4.70
2022-12-07T16:30:10.103Z,4.90
2022-12-07T16:34:11.742Z,4.90
2022-12-07T16:38:13.314Z,5.00
2022-12-07T16:42:14.918Z,5.10
2022-12-07T16:46:16.737Z,5.00
2022-12-07T16:50:18.546Z,5.10
2022-12-07T16:54:20.133Z,5.00
2022-12-07T16:58:21.774Z,5.00
2022-12-07T17:02:23.432Z,5.00
2022-12-07T17:06:28.357Z,5.10
2022-12-07T17:10:30.047Z,5.20
2022-12-07T17:14:50.271Z,5.10
2022-12-07T17:18:51.948Z,5.10
2022-12-07T17:22:54.385Z,5.10
2022-12-07T17:26:56.039Z,5.20
2022-12-07T17:30:57.732Z,5.10
2022-12-07T17:35:00.792Z,5.20
2022-12-07T17:39:06.990Z,5.20
2022-12-07T17:43:09.226Z,5.20
2022-12-07T17:47:11.155Z,5.10
2022-12-07T17:51:31.488Z,5.00
2022-12-07T17:55:54.528Z,5.00
2022-12-07T17:59:55.413Z,5.00
2022-12-07T18:03:57.033Z,5.10
2022-12-07T18:07:58.961Z,5.00
2022-12-07T18:12:00.891Z,5.00
2022-12-07T18:16:11.510Z,4.90
2022-12-07T18:20:13.507Z,4.90
2022-12-07T18:24:17.422Z,4.90
2022-12-07T18:28:20.657Z,4.90
2022-12-07T18:32:22.645Z,4.80
2022-12-07T18:36:24.388Z,4.80
2022-12-07T18:40:27.255Z,4.80
2022-12-07T18:44:28.991Z,4.80
2022-12-07T18:48:30.607Z,4.90
2022-12-07T18:52:32.282Z,4.80
2022-12-07T18:56:34.147Z,4.90
2022-12-07T19:00:36.055Z,4.90
2022-12-07T19:04:37.767Z,5.00
2022-12-07T19:08:39.359Z,4.90
2022-12-07T19:12:41.543Z,4.90
2022-12-07T19:16:45.359Z,4.90
2022-12-07T19:20:47.095Z,4.90
2022-12-07T19:24:50.944Z,4.90
2022-12-07T19:28:52.596Z,4.80
2022-12-07T19:32:54.334Z,4.70
2022-12-07T19:36:55.988Z,4.80
2022-12-07T19:41:06.299Z,4.70
2022-12-07T19:45:08.143Z,4.70
2022-12-07T19:49:09.915Z,4.70
2022-12-07T19:53:11.574Z,4.90
2022-12-07T19:57:16.247Z,4.80
2022-12-07T20:01:18.075Z,4.80
2022-12-07T20:05:21.841Z,4.70
2022-12-07T20:09:24.175Z,4.70
2022-12-07T20:13:28.777Z,4.60
2022-12-07T20:17:30.443Z,4.60
2022-12-07T20:21:32.314Z,4.60
2022-12-07T20:25:36.496Z,4.60
2022-12-07T20:29:38.154Z,4.60
2022-12-07T20:33:40.617Z,4.50
2022-12-07T20:37:42.242Z,4.60
2022-12-07T20:42:02.558Z,4.60
2022-12-07T20:46:04.262Z,4.50
2022-12-07T20:50:06.689Z,4.40
2022-12-07T20:54:08.518Z,4.40
2022-12-07T20:58:10.511Z,4.40
2022-12-07T21:02:13.612Z,4.50
2022-12-07T21:06:17.327Z,4.30
2022-12-07T21:10:19.148Z,4.40
2022-12-07T21:14:21.828Z,4.40
2022-12-07T21:18:23.474Z,4.30
2022-12-07T21:22:25.143Z,4.40
2022-12-07T21:26:27.924Z,4.30
2022-12-07T21:30:40.512Z,4.30
2022-12-07T21:34:51.278Z,4.30
2022-12-07T21:38:53.315Z,4.30
2022-12-07T21:42:54.961Z,4.30
2022-12-07T21:46:56.741Z,4.20
2022-12-07T21:51:09.560Z,4.20
2022-12-07T21:55:11.288Z,4.20
2022-12-07T21:59:15.614Z,4.20
2022-12-07T22:03:17.523Z,4.20
2022-12-07T22:07:19.240Z,4.20
2022-12-07T22:11:20.907Z,4.10
2022-12-07T22:15:23.086Z,4.10
2022-12-07T22:19:25.742Z,4.20
2022-12-07T22:23:27.387Z,4.20
2022-12-07T22:27:29.140Z,4.20
2022-12-07T22:31:30.839Z,4.20
2022-12-07T22:35:32.551Z,4.30
2022-12-07T22:39:34.233Z,4.30
2022-12-07T22:43:35.940Z,4.30
2022-12-07T22:47:39.159Z,4.20
2022-12-07T22:51:41.792Z,4.30
2022-12-07T22:55:43.455Z,4.30
2022-12-07T22:59:45.146Z,4.40
2022-12-07T23:03:47.358Z,4.40
2022-12-07T23:07:49.122Z,4.40
2022-12-07T23:12:09.670Z,4.40
2022-12-07T23:16:15.293Z,4.40
2022-12-07T23:20:17.429Z,4.40
2022-12-07T23:24:19.175Z,4.30
2022-12-07T23:28:20.906Z,4.30
2022-12-07T23:32:22.548Z,4.30
2022-12-07T23:36:26.673Z,4.30
2022-12-07T23:40:28.425Z,4.20
2022-12-07T23:44:30.055Z,4.30
2022-12-07T23:48:31.674Z,4.20
2022-12-07T23:52:33.270Z,4.20
2022-12-07T23:56:35.216Z,4.20
